Time;durP1;ratioP1;P1;durP2;ratioP2;P2;SDS_P1;SDS_P2;PMS_P1;PMS_P2;Temp;Humidity;BMP_temperature;BMP_pressure;BME280_temperature;BME280_humidity;BME280_pressure;Samples;Min_cycle;Max_cycle;Signal;HPM_P1;HPM_P2
2023/01/09 00:01:50;;;;;;;;;;;;;;;10.82;100.00;97246.66;5051122;28;19931;-75
2023/01/09 00:04:16;;;;;;;;;;;;;;;10.27;100.00;97224.22;5050169;28;20375;-74
2023/01/09 00:06:42;;;;;;;;;;;;;;;10.81;100.00;97249.31;5054188;28;20007;-74
2023/01/09 00:09:08;;;;;;;;;;;;;;;10.72;100.00;97244.72;5069735;28;19930;-74
2023/01/09 00:11:33;;;;;;;;;;;;;;;10.61;100.00;97242.81;5051179;28;20736;-74
2023/01/09 00:13:58;;;;;;;;;;;;;;;10.69;100.00;97256.03;5052131;28;19974;-73
2023/01/09 00:16:24;;;;;;;;;;;;;;;10.17;100.00;97239.38;5069152;28;19921;-74
2023/01/09 00:18:49;;;;;;;;;;;;;;;10.36;100.00;97258.91;5070051;28;19930;-73
2023/01/09 00:21:15;;;;;;;;;;;;;;;10.25;100.00;97267.22;5049701;28;19959;-74
2023/01/09 00:23:43;;;;;;;;;;;;;;;10.07;100.00;97268.28;5069736;28;19928;-74
2023/01/09 00:26:12;;;;;;;;;;;;;;;10.12;100.00;97297.13;5070605;28;19926;-74
2023/01/09 00:28:37;;;;;;;;;;;;;;;10.46;100.00;97322.59;5049457;28;20340;-74
2023/01/09 00:31:03;;;;;;;;;;;;;;;10.87;100.00;97321.88;5050168;28;19962;-73
2023/01/09 00:33:29;;;;;;;;;;;;;;;10.75;100.00;97314.91;5054250;28;19924;-74
2023/01/09 00:35:54;;;;;;;;;;;;;;;10.76;100.00;97310.56;5055295;28;19920;-74
2023/01/09 00:38:20;;;;;;;;;;;;;;;10.93;100.00;97312.16;5053433;28;20030;-74
2023/01/09 00:40:45;;;;;;;;;;;;;;;10.73;100.00;97306.44;5073203;28;19928;-74
2023/01/09 00:43:10;;;;;;;;;;;;;;;10.76;100.00;97308.81;5074377;28;19920;-74
2023/01/09 00:45:35;;;;;;;;;;;;;;;10.83;100.00;97315.28;5053816;28;19974;-74
2023/01/09 00:48:02;;;;;;;;;;;;;;;10.54;100.00;97318.75;5071867;28;19920;-74
2023/01/09 00:50:29;;;;;;;;;;;;;;;9.99;100.00;97317.56;5053362;28;19970;-74
2023/01/09 00:52:55;;;;;;;;;;;;;;;10.49;100.00;97331.03;5054106;28;19920;-74
2023/01/09 00:55:20;;;;;;;;;;;;;;;10.22;100.00;97318.84;5053549;28;20643;-74
2023/01/09 00:57:45;;;;;;;;;;;;;;;10.53;100.00;97340.25;5072985;28;20373;-74
2023/01/09 01:00:11;;;;;;;;;;;;;;;10.97;100.00;97329.91;5071569;28;20358;-74
2023/01/09 01:02:36;;;;;;;;;;;;;;;10.71;100.00;97310.03;5072430;28;19923;-74
2023/01/09 01:07:45;;;;;;;;;;;;;;;10.33;100.00;97321.66;5069827;28;19997;-73
2023/01/09 01:10:12;;;;;;;;;;;;;;;10.42;100.00;97322.84;5052708;28;19928;-74
2023/01/09 01:12:37;;;;;;;;;;;;;;;9.92;100.00;97318.84;5045905;28;21004;-74
2023/01/09 01:15:03;;;;;;;;;;;;;;;10.42;100.00;97346.00;5053523;28;20017;-74
2023/01/09 01:17:28;;;;;;;;;;;;;;;10.29;100.00;97361.34;5070545;28;20287;-73
2023/01/09 01:19:54;;;;;;;;;;;;;;;10.00;100.00;97344.97;5073239;28;19917;-74
2023/01/09 01:22:19;;;;;;;;;;;;;;;9.89;100.00;97358.41;5069999;28;19961;-75
2023/01/09 01:24:44;;;;;;;;;;;;;;;10.58;100.00;97371.69;5031177;28;19931;-74
2023/01/09 01:27:09;;;;;;;;;;;;;;;10.45;100.00;97372.41;5071822;28;19939;-74
2023/01/09 01:29:35;;;;;;;;;;;;;;;10.83;100.00;97365.94;5070018;28;19937;-74
2023/01/09 01:32:00;;;;;;;;;;;;;;;10.74;100.00;97346.72;5072953;28;19964;-74
2023/01/09 01:34:26;;;;;;;;;;;;;;;10.43;100.00;97345.94;5071092;28;19916;-74
2023/01/09 01:36:52;;;;;;;;;;;;;;;10.44;100.00;97349.34;5054615;28;19920;-74
2023/01/09 01:39:17;;;;;;;;;;;;;;;9.73;100.00;97331.91;5070337;28;19927;-74
2023/01/09 01:41:42;;;;;;;;;;;;;;;10.54;100.00;97360.75;5073109;28;19917;-74
2023/01/09 01:44:26;;;;;;;;;;;;;;;10.19;100.00;97345.56;5071382;28;19924;-74
2023/01/09 01:46:51;;;;;;;;;;;;;;;10.14;100.00;97364.75;5070912;28;19997;-74
2023/01/09 01:49:19;;;;;;;;;;;;;;;10.31;100.00;97362.09;5053505;28;19999;-74
2023/01/09 01:51:45;;;;;;;;;;;;;;;9.95;100.00;97347.78;5070207;28;20999;-74
2023/01/09 01:54:13;;;;;;;;;;;;;;;10.29;100.00;97365.69;5052877;28;19931;-74
2023/01/09 01:56:42;;;;;;;;;;;;;;;10.05;100.00;97350.66;5054091;28;19920;-74
2023/01/09 01:59:24;;;;;;;;;;;;;;;10.43;100.00;97353.66;5069835;28;19926;-74
2023/01/09 02:01:51;;;;;;;;;;;;;;;10.40;100.00;97358.13;5070098;28;19912;-74
2023/01/09 02:04:16;;;;;;;;;;;;;;;10.13;100.00;97339.97;5052355;28;20338;-74
2023/01/09 02:06:41;;;;;;;;;;;;;;;9.61;100.00;97339.38;5053569;28;19920;-74
2023/01/09 02:09:06;;;;;;;;;;;;;;;9.67;100.00;97342.50;5051312;28;19943;-74
2023/01/09 02:11:32;;;;;;;;;;;;;;;9.82;100.00;97357.91;5053156;28;19920;-74
2023/01/09 02:13:57;;;;;;;;;;;;;;;10.11;100.00;97352.06;5053566;28;19920;-75
2023/01/09 02:16:38;;;;;;;;;;;;;;;9.98;100.00;97352.75;5053036;28;19962;-75
2023/01/09 02:19:15;;;;;;;;;;;;;;;10.22;100.00;97344.56;5072912;28;19953;-76
2023/01/09 02:21:40;;;;;;;;;;;;;;;10.19;100.00;97329.28;5070306;28;19920;-75
2023/01/09 02:24:08;;;;;;;;;;;;;;;10.15;100.00;97317.53;5070350;28;19922;-74
2023/01/09 02:26:52;;;;;;;;;;;;;;;9.95;100.00;97322.06;5072497;28;19924;-75
2023/01/09 02:29:26;;;;;;;;;;;;;;;9.78;100.00;97322.19;5068914;28;20055;-75
2023/01/09 02:31:51;;;;;;;;;;;;;;;9.89;100.00;97335.25;5070301;28;19920;-75
2023/01/09 02:34:24;;;;;;;;;;;;;;;10.24;100.00;97342.72;5069468;28;19943;-75
2023/01/09 02:36:55;;;;;;;;;;;;;;;9.99;100.00;97323.56;5052732;28;19916;-75
2023/01/09 02:39:30;;;;;;;;;;;;;;;9.83;100.00;97317.63;5071320;28;19931;-74
2023/01/09 02:42:15;;;;;;;;;;;;;;;10.19;100.00;97329.28;5051445;28;19927;-74
2023/01/09 02:44:41;;;;;;;;;;;;;;;10.00;100.00;97321.81;5051548;28;20428;-75
2023/01/09 02:47:16;;;;;;;;;;;;;;;10.36;100.00;97331.78;5069215;28;19924;-74
2023/01/09 02:49:45;;;;;;;;;;;;;;;10.07;100.00;97314.56;5071721;28;21099;-74
2023/01/09 02:52:16;;;;;;;;;;;;;;;10.25;100.00;97319.50;5051038;28;20431;-74
2023/01/09 02:54:46;;;;;;;;;;;;;;;10.23;100.00;97315.34;5069667;28;19926;-74
2023/01/09 02:57:18;;;;;;;;;;;;;;;10.34;100.00;97317.34;5051735;28;20386;-74
2023/01/09 02:59:46;;;;;;;;;;;;;;;9.77;100.00;97312.81;5069020;28;19962;-74
2023/01/09 03:02:28;;;;;;;;;;;;;;;10.42;100.00;97330.56;5071873;28;20014;-74
2023/01/09 03:05:06;;;;;;;;;;;;;;;10.28;100.00;97318.47;5070022;28;20325;-74
2023/01/09 03:07:33;;;;;;;;;;;;;;;10.37;100.00;97312.81;5070393;28;20477;-74
2023/01/09 03:10:07;;;;;;;;;;;;;;;10.45;100.00;97297.78;5051947;28;19923;-74
2023/01/09 03:12:33;;;;;;;;;;;;;;;10.22;100.00;97291.38;5071851;28;19986;-74
2023/01/09 03:14:58;;;;;;;;;;;;;;;9.98;100.00;97311.59;5052824;28;20370;-74
2023/01/09 03:17:28;;;;;;;;;;;;;;;10.21;100.00;97307.72;5050409;28;19916;-74
2023/01/09 03:19:53;;;;;;;;;;;;;;;10.43;100.00;97319.38;5052081;28;19920;-74
2023/01/09 03:22:19;;;;;;;;;;;;;;;10.49;100.00;97295.88;5052716;28;19923;-74
2023/01/09 03:24:44;;;;;;;;;;;;;;;10.58;100.00;97289.31;5053236;28;19920;-74
2023/01/09 03:27:09;;;;;;;;;;;;;;;10.42;100.00;97279.97;5070210;28;19931;-74
2023/01/09 03:29:35;;;;;;;;;;;;;;;10.49;100.00;97277.00;5051890;28;19934;-74
2023/01/09 03:32:00;;;;;;;;;;;;;;;10.59;100.00;97280.69;5052510;28;19928;-74
2023/01/09 03:34:25;;;;;;;;;;;;;;;10.47;100.00;97277.13;5051327;28;19993;-75
2023/01/09 03:36:50;;;;;;;;;;;;;;;10.67;100.00;97286.19;5071424;28;19945;-74
2023/01/09 03:39:15;;;;;;;;;;;;;;;9.98;100.00;97280.75;5070291;28;19932;-74
2023/01/09 03:41:41;;;;;;;;;;;;;;;10.05;100.00;97302.63;5069144;28;19920;-74
2023/01/09 03:44:06;;;;;;;;;;;;;;;9.69;100.00;97302.13;5051124;28;19919;-75
2023/01/09 03:46:31;;;;;;;;;;;;;;;9.76;100.00;97326.56;5069651;28;19920;-74
2023/01/09 03:48:56;;;;;;;;;;;;;;;9.68;100.00;97329.56;5069421;28;19924;-75
2023/01/09 03:51:22;;;;;;;;;;;;;;;9.80;100.00;97351.19;5069447;28;19916;-74
2023/01/09 03:53:47;;;;;;;;;;;;;;;9.82;100.00;97345.06;5067501;28;19916;-74
2023/01/09 03:56:12;;;;;;;;;;;;;;;9.60;100.00;97347.16;5070968;28;19943;-74
2023/01/09 03:58:37;;;;;;;;;;;;;;;9.23;100.00;97363.72;5067889;28;19916;-74
2023/01/09 04:01:03;;;;;;;;;;;;;;;9.35;100.00;97386.19;5069388;28;19973;-74
2023/01/09 04:03:28;;;;;;;;;;;;;;;9.43;100.00;97407.16;5052078;28;19961;-74
2023/01/09 04:05:54;;;;;;;;;;;;;;;9.46;100.00;97417.28;5069157;28;19920;-74
2023/01/09 04:08:19;;;;;;;;;;;;;;;9.23;100.00;97427.94;5054844;28;19924;-74
2023/01/09 04:10:45;;;;;;;;;;;;;;;9.75;100.00;97458.59;5072834;28;20007;-74
2023/01/09 04:13:10;;;;;;;;;;;;;;;9.63;100.00;97448.06;5074365;28;19959;-75
2023/01/09 04:15:35;;;;;;;;;;;;;;;9.59;100.00;97463.72;5073346;28;20454;-74
2023/01/09 04:18:02;;;;;;;;;;;;;;;9.34;100.00;97474.44;5072384;28;20229;-74
2023/01/09 04:20:27;;;;;;;;;;;;;;;9.45;100.00;97477.28;5074853;28;19920;-74
2023/01/09 04:22:53;;;;;;;;;;;;;;;9.76;100.00;97496.25;5056438;28;20412;-75
2023/01/09 04:25:18;;;;;;;;;;;;;;;9.87;100.00;97488.78;5073768;28;20416;-75
2023/01/09 04:27:43;;;;;;;;;;;;;;;9.87;100.00;97478.50;5054008;28;20438;-75
2023/01/09 04:30:09;;;;;;;;;;;;;;;10.00;100.00;97476.94;5054612;28;20569;-79
2023/01/09 04:32:34;;;;;;;;;;;;;;;9.67;100.00;97451.31;5074911;28;20334;-73
2023/01/09 04:34:59;;;;;;;;;;;;;;;9.87;100.00;97457.94;5074512;28;19955;-74
2023/01/09 04:37:24;;;;;;;;;;;;;;;9.73;100.00;97465.56;5075324;28;19927;-74
2023/01/09 04:39:50;;;;;;;;;;;;;;;10.10;100.00;97469.53;5039054;28;19920;-80
2023/01/09 04:42:15;;;;;;;;;;;;;;;9.77;100.00;97446.50;5075716;28;19921;-76
2023/01/09 04:44:40;;;;;;;;;;;;;;;9.63;100.00;97455.78;5072971;28;19927;-72
2023/01/09 04:47:06;;;;;;;;;;;;;;;9.68;100.00;97452.13;5053290;28;19935;-71
2023/01/09 04:49:31;;;;;;;;;;;;;;;9.67;100.00;97456.44;5073429;28;19932;-71
2023/01/09 04:51:56;;;;;;;;;;;;;;;9.38;100.00;97434.84;5073185;28;20378;-74
2023/01/09 04:54:21;;;;;;;;;;;;;;;9.19;100.00;97445.22;5072956;28;20506;-74
2023/01/09 04:56:47;;;;;;;;;;;;;;;9.40;100.00;97461.28;5071820;28;20022;-74
2023/01/09 04:59:12;;;;;;;;;;;;;;;9.52;100.00;97468.34;5055748;28;19927;-74
2023/01/09 05:01:37;;;;;;;;;;;;;;;9.30;100.00;97454.97;5071938;28;20642;-75
2023/01/09 05:04:03;;;;;;;;;;;;;;;9.14;100.00;97455.75;5073008;28;19916;-74
2023/01/09 05:06:28;;;;;;;;;;;;;;;9.08;100.00;97474.06;5053041;28;19920;-74
2023/01/09 05:08:55;;;;;;;;;;;;;;;9.81;100.00;97499.41;5056030;28;19950;-74
2023/01/09 05:11:20;;;;;;;;;;;;;;;9.78;100.00;97481.56;5071233;28;19981;-74
2023/01/09 05:13:45;;;;;;;;;;;;;;;9.84;100.00;97478.69;5072820;28;19924;-74
2023/01/09 05:16:11;;;;;;;;;;;;;;;9.59;100.00;97474.84;5072565;28;19924;-74
2023/01/09 05:18:36;;;;;;;;;;;;;;;9.79;100.00;97478.91;5071453;28;20015;-74
2023/01/09 05:21:01;;;;;;;;;;;;;;;9.78;100.00;97471.28;5053308;28;20015;-73
2023/01/09 05:23:26;;;;;;;;;;;;;;;9.82;100.00;97470.22;5070152;28;19963;-73
2023/01/09 05:25:52;;;;;;;;;;;;;;;10.40;100.00;97461.94;5052753;28;19966;-74
2023/01/09 05:28:17;;;;;;;;;;;;;;;10.43;100.00;97419.75;5071087;28;19973;-73
2023/01/09 05:30:42;;;;;;;;;;;;;;;10.91;100.00;97414.44;5070973;28;19920;-74
2023/01/09 05:33:07;;;;;;;;;;;;;;;10.75;100.00;97394.72;5071077;28;19920;-74
2023/01/09 05:35:32;;;;;;;;;;;;;;;10.59;100.00;97386.22;5054016;28;19923;-74
2023/01/09 05:37:58;;;;;;;;;;;;;;;10.50;100.00;97389.34;5071064;28;19920;-73
2023/01/09 05:40:23;;;;;;;;;;;;;;;9.79;100.00;97393.25;5071423;28;20006;-74
2023/01/09 05:42:48;;;;;;;;;;;;;;;10.02;100.00;97410.81;5053078;28;19960;-74
2023/01/09 05:45:13;;;;;;;;;;;;;;;10.31;100.00;97415.28;5071309;28;19948;-73
2023/01/09 05:47:39;;;;;;;;;;;;;;;10.18;100.00;97397.94;5070441;28;19916;-73
2023/01/09 05:50:04;;;;;;;;;;;;;;;10.37;100.00;97395.16;5053320;28;19920;-74
2023/01/09 05:52:29;;;;;;;;;;;;;;;10.42;100.00;97388.03;5072087;28;20370;-74
2023/01/09 05:54:55;;;;;;;;;;;;;;;10.37;100.00;97378.91;5072242;28;20425;-74
2023/01/09 05:57:20;;;;;;;;;;;;;;;10.00;100.00;97365.53;5052420;28;19931;-74
2023/01/09 05:59:45;;;;;;;;;;;;;;;10.07;100.00;97381.44;5050255;28;19985;-74
2023/01/09 06:02:10;;;;;;;;;;;;;;;9.64;100.00;97385.44;5051377;28;19916;-74
2023/01/09 06:04:36;;;;;;;;;;;;;;;9.62;100.00;97402.72;5069154;28;19962;-74
2023/01/09 06:07:01;;;;;;;;;;;;;;;9.69;100.00;97405.75;5069350;28;20007;-74
2023/01/09 06:09:26;;;;;;;;;;;;;;;9.98;100.00;97406.75;5069486;28;19924;-75
2023/01/09 06:11:53;;;;;;;;;;;;;;;9.15;100.00;97390.63;5067708;28;19928;-73
2023/01/09 06:14:19;;;;;;;;;;;;;;;9.58;100.00;97396.09;5069587;28;19917;-73
2023/01/09 06:16:44;;;;;;;;;;;;;;;9.66;100.00;97392.25;5051699;28;19939;-74
2023/01/09 06:19:09;;;;;;;;;;;;;;;9.43;100.00;97384.03;5071532;28;19920;-74
2023/01/09 06:21:34;;;;;;;;;;;;;;;9.31;100.00;97379.56;5051775;28;19962;-75
2023/01/09 06:23:59;;;;;;;;;;;;;;;9.17;100.00;97383.69;5070163;28;19927;-74
2023/01/09 06:26:25;;;;;;;;;;;;;;;9.28;100.00;97405.41;5070482;28;20006;-73
2023/01/09 06:28:50;;;;;;;;;;;;;;;9.46;100.00;97399.28;5051643;28;20074;-73
2023/01/09 06:31:15;;;;;;;;;;;;;;;9.16;100.00;97404.31;5068933;28;19917;-74
2023/01/09 06:33:41;;;;;;;;;;;;;;;9.07;100.00;97394.50;5070005;28;19912;-74
2023/01/09 06:36:06;;;;;;;;;;;;;;;8.97;100.00;97391.59;5069695;28;19924;-73
2023/01/09 06:38:31;;;;;;;;;;;;;;;8.70;100.00;97386.94;5072265;28;19924;-74
2023/01/09 06:40:56;;;;;;;;;;;;;;;9.41;100.00;97420.09;5044687;28;19916;-74
2023/01/09 06:43:22;;;;;;;;;;;;;;;9.31;100.00;97408.66;5050902;28;19935;-73
2023/01/09 06:45:47;;;;;;;;;;;;;;;9.36;100.00;97405.84;5069041;28;19916;-73
2023/01/09 06:48:12;;;;;;;;;;;;;;;8.71;100.00;97408.31;5051469;28;19920;-72
2023/01/09 06:50:37;;;;;;;;;;;;;;;9.30;100.00;97426.69;5068147;28;20756;-73
2023/01/09 06:53:03;;;;;;;;;;;;;;;9.45;100.00;97420.78;5044252;28;19928;-72
2023/01/09 06:55:28;;;;;;;;;;;;;;;9.57;100.00;97407.25;5069228;28;19916;-73
2023/01/09 06:57:53;;;;;;;;;;;;;;;9.37;100.00;97403.19;5066717;28;19923;-73
2023/01/09 07:00:19;;;;;;;;;;;;;;;9.16;100.00;97405.13;5069221;28;21013;-72
2023/01/09 07:02:44;;;;;;;;;;;;;;;9.27;100.00;97408.91;5051638;28;19999;-73
2023/01/09 07:05:10;;;;;;;;;;;;;;;8.83;100.00;97414.59;5051233;28;19931;-73
2023/01/09 07:07:36;;;;;;;;;;;;;;;9.14;100.00;97427.50;5053789;28;19950;-73
2023/01/09 07:10:01;;;;;;;;;;;;;;;8.98;100.00;97436.88;5049950;28;19921;-73
2023/01/09 07:12:26;;;;;;;;;;;;;;;9.17;100.00;97435.06;5069054;28;21301;-72
2023/01/09 07:14:52;;;;;;;;;;;;;;;9.18;100.00;97429.00;5070205;28;19974;-73
2023/01/09 07:17:17;;;;;;;;;;;;;;;9.01;100.00;97429.06;5068134;28;19924;-72
2023/01/09 07:19:42;;;;;;;;;;;;;;;9.49;100.00;97442.84;5043757;28;19923;-72
2023/01/09 07:22:07;;;;;;;;;;;;;;;9.77;100.00;97437.03;5068672;28;19974;-72
2023/01/09 07:24:33;;;;;;;;;;;;;;;9.21;100.00;97422.88;5052073;28;20412;-73
2023/01/09 07:26:58;;;;;;;;;;;;;;;9.42;100.00;97423.50;5069387;28;19969;-73
2023/01/09 07:29:23;;;;;;;;;;;;;;;8.76;100.00;97427.72;5068088;28;19916;-72
2023/01/09 07:31:48;;;;;;;;;;;;;;;8.79;100.00;97435.25;5068238;28;19966;-73
2023/01/09 07:34:13;;;;;;;;;;;;;;;9.07;100.00;97454.41;5069960;28;19920;-73
2023/01/09 07:36:39;;;;;;;;;;;;;;;9.20;100.00;97442.59;5070602;28;19912;-72
2023/01/09 07:39:04;;;;;;;;;;;;;;;9.26;100.00;97450.88;5068115;28;19923;-72
2023/01/09 07:41:29;;;;;;;;;;;;;;;8.65;100.00;97449.69;5071169;28;20044;-73
2023/01/09 07:43:55;;;;;;;;;;;;;;;9.07;100.00;97467.22;5055952;28;20003;-73
2023/01/09 07:46:20;;;;;;;;;;;;;;;9.12;100.00;97474.72;5073046;28;19920;-72
2023/01/09 07:48:46;;;;;;;;;;;;;;;8.89;100.00;97468.97;5072487;28;20286;-73
2023/01/09 07:51:11;;;;;;;;;;;;;;;9.73;100.00;97486.94;5074189;28;20541;-73
2023/01/09 07:53:36;;;;;;;;;;;;;;;9.67;100.00;97460.75;5073421;28;20035;-72
2023/01/09 07:56:02;;;;;;;;;;;;;;;9.55;100.00;97457.91;5073666;28;19919;-73
2023/01/09 07:58:27;;;;;;;;;;;;;;;9.25;100.00;97457.75;5073620;28;20382;-72
2023/01/09 08:00:52;;;;;;;;;;;;;;;8.86;100.00;97474.28;5071666;28;20074;-73
2023/01/09 08:03:17;;;;;;;;;;;;;;;9.35;100.00;97492.38;5070504;28;19997;-71
2023/01/09 08:05:43;;;;;;;;;;;;;;;9.03;100.00;97486.25;5072430;28;19924;-73
2023/01/09 08:08:08;;;;;;;;;;;;;;;8.99;100.00;97497.63;5073135;28;20342;-73
2023/01/09 08:10:33;;;;;;;;;;;;;;;9.27;100.00;97504.75;5053373;28;20354;-72
2023/01/09 08:12:58;;;;;;;;;;;;;;;9.21;100.00;97510.19;5070952;28;20370;-72
2023/01/09 08:15:23;;;;;;;;;;;;;;;8.99;100.00;97511.28;5071900;28;20416;-72
2023/01/09 08:17:49;;;;;;;;;;;;;;;8.95;100.00;97521.78;5071571;28;19923;-73
2023/01/09 08:20:15;;;;;;;;;;;;;;;9.02;100.00;97525.69;5072125;28;19956;-72
2023/01/09 08:22:40;;;;;;;;;;;;;;;8.88;100.00;97536.66;5072766;28;19916;-72
2023/01/09 08:25:06;;;;;;;;;;;;;;;9.20;100.00;97550.47;5053944;28;20030;-73
2023/01/09 08:27:31;;;;;;;;;;;;;;;8.83;100.00;97556.59;5054078;28;19912;-72
2023/01/09 08:29:56;;;;;;;;;;;;;;;8.79;100.00;97568.72;5071882;28;19916;-73
2023/01/09 08:32:21;;;;;;;;;;;;;;;8.75;100.00;97569.78;5072039;28;20291;-72
2023/01/09 08:34:47;;;;;;;;;;;;;;;8.87;100.00;97580.34;5071140;28;20275;-71
2023/01/09 08:37:12;;;;;;;;;;;;;;;9.07;100.00;97575.09;5071862;28;19921;-72
2023/01/09 08:39:37;;;;;;;;;;;;;;;8.92;100.00;97571.53;5071693;28;20381;-71
2023/01/09 08:47:33;;;;;;;;;;;;;;;9.39;100.00;97585.50;5070570;28;20395;-71
2023/01/09 08:49:59;;;;;;;;;;;;;;;9.08;100.00;97571.63;5055650;28;20469;-71
2023/01/09 08:52:24;;;;;;;;;;;;;;;9.34;100.00;97588.31;5051382;28;19920;-72
2023/01/09 08:54:49;;;;;;;;;;;;;;;9.22;100.00;97573.53;5053054;28;19920;-71
2023/01/09 08:57:15;;;;;;;;;;;;;;;9.45;100.00;97574.94;5070833;28;20386;-71
2023/01/09 08:59:40;;;;;;;;;;;;;;;9.49;100.00;97570.47;5069925;28;19916;-71
2023/01/09 09:02:05;;;;;;;;;;;;;;;9.14;100.00;97566.19;5052032;28;19920;-72
2023/01/09 09:04:30;;;;;;;;;;;;;;;9.45;100.00;97585.22;5053528;28;20240;-71
2023/01/09 09:06:56;;;;;;;;;;;;;;;9.41;100.00;97573.44;5071441;28;19920;-72
2023/01/09 09:09:21;;;;;;;;;;;;;;;9.64;100.00;97570.50;5053917;28;19924;-71
2023/01/09 09:11:46;;;;;;;;;;;;;;;9.77;100.00;97567.31;5072134;28;19912;-72
2023/01/09 09:16:55;;;;;;;;;;;;;;;9.21;100.00;97548.72;5069816;28;19920;-72
2023/01/09 09:19:20;;;;;;;;;;;;;;;10.04;100.00;97563.31;5071227;28;19916;-72
2023/01/09 09:21:46;;;;;;;;;;;;;;;9.49;100.00;97545.63;5070666;28;19923;-71
2023/01/09 09:24:11;;;;;;;;;;;;;;;9.54;100.00;97547.94;5070073;28;19916;-71
2023/01/09 09:26:36;;;;;;;;;;;;;;;9.87;100.00;97553.06;5072890;28;19916;-71
2023/01/09 09:29:01;;;;;;;;;;;;;;;9.60;100.00;97547.63;5070289;28;19924;-71
2023/01/09 09:31:27;;;;;;;;;;;;;;;9.55;100.00;97545.28;5070804;28;19917;-70
2023/01/09 09:33:52;;;;;;;;;;;;;;;9.66;100.00;97538.78;5070755;28;20014;-71
2023/01/09 09:36:17;;;;;;;;;;;;;;;9.64;100.00;97547.38;5070305;28;19959;-71
2023/01/09 09:38:42;;;;;;;;;;;;;;;9.77;100.00;97536.47;5073129;28;19916;-71
2023/01/09 09:47:04;;;;;;;;;;;;;;;10.21;100.00;97564.16;5071008;28;19970;-72
2023/01/09 09:49:35;;;;;;;;;;;;;;;10.27;100.00;97563.81;5052798;28;19928;-71
2023/01/09 09:52:18;;;;;;;;;;;;;;;10.38;100.00;97561.53;5052981;28;19916;-72
2023/01/09 09:54:46;;;;;;;;;;;;;;;10.17;100.00;97562.66;5051473;28;20007;-71
2023/01/09 09:57:13;;;;;;;;;;;;;;;9.81;100.00;97567.09;5052668;28;19920;-71
2023/01/09 09:59:38;;;;;;;;;;;;;;;9.82;100.00;97548.16;5068371;28;19920;-72
2023/01/09 10:02:09;;;;;;;;;;;;;;;9.93;100.00;97557.06;5053950;28;19916;-72
2023/01/09 10:04:36;;;;;;;;;;;;;;;9.95;100.00;97558.66;5051498;28;21130;-72
2023/01/09 10:07:05;;;;;;;;;;;;;;;10.01;100.00;97562.63;5051658;28;20038;-72
2023/01/09 10:09:42;;;;;;;;;;;;;;;9.97;100.00;97571.44;5053245;28;20459;-72
2023/01/09 10:12:10;;;;;;;;;;;;;;;9.61;100.00;97569.84;5071691;28;19916;-72
2023/01/09 10:14:35;;;;;;;;;;;;;;;9.90;100.00;97558.06;5071785;28;19955;-72
2023/01/09 10:17:04;;;;;;;;;;;;;;;9.87;100.00;97560.78;5069788;28;19967;-72
2023/01/09 10:19:35;;;;;;;;;;;;;;;9.41;100.00;97550.31;5069288;28;20011;-72
2023/01/09 10:22:09;;;;;;;;;;;;;;;10.25;100.00;97576.75;5071526;28;20388;-72
2023/01/09 10:24:49;;;;;;;;;;;;;;;10.02;100.00;97562.56;5071061;28;20555;-72
2023/01/09 10:27:28;;;;;;;;;;;;;;;10.42;100.00;97547.59;5071548;28;19927;-72
2023/01/09 10:29:54;;;;;;;;;;;;;;;10.55;100.00;97542.59;5050287;28;19920;-71
2023/01/09 10:32:32;;;;;;;;;;;;;;;10.49;100.00;97531.78;5052016;28;19928;-72
2023/01/09 10:35:16;;;;;;;;;;;;;;;10.52;100.00;97516.22;5070859;28;19923;-72
2023/01/09 10:37:42;;;;;;;;;;;;;;;10.37;100.00;97507.56;5069222;28;19970;-72
2023/01/09 10:40:33;;;;;;;;;;;;;;;10.73;100.00;97514.16;5051955;28;20007;-72
2023/01/09 10:43:17;;;;;;;;;;;;;;;10.40;100.00;97505.69;5066969;28;20301;-72
2023/01/09 10:45:49;;;;;;;;;;;;;;;10.87;100.00;97496.19;5069257;28;19923;-73
2023/01/09 10:48:20;;;;;;;;;;;;;;;10.62;100.00;97499.31;5054955;28;19973;-72
2023/01/09 10:50:45;;;;;;;;;;;;;;;9.98;100.00;97488.22;5070513;28;20011;-73
2023/01/09 10:53:15;;;;;;;;;;;;;;;10.19;100.00;97504.22;5053647;28;20046;-73
2023/01/09 10:55:40;;;;;;;;;;;;;;;10.85;100.00;97493.69;5052670;28;19925;-73
2023/01/09 10:58:15;;;;;;;;;;;;;;;10.61;100.00;97484.81;5069730;28;20455;-73
2023/01/09 11:00:41;;;;;;;;;;;;;;;9.91;100.00;97480.00;5050883;28;20050;-73
2023/01/09 11:03:10;;;;;;;;;;;;;;;9.76;100.00;97491.09;5052665;28;19920;-73
2023/01/09 11:05:36;;;;;;;;;;;;;;;10.03;100.00;97510.22;5049847;28;19973;-73
2023/01/09 11:08:33;;;;;;;;;;;;;;;9.95;100.00;97502.06;5069476;28;19916;-73
2023/01/09 11:10:59;;;;;;;;;;;;;;;9.38;100.00;97496.50;5027026;28;19932;-73
2023/01/09 11:13:25;;;;;;;;;;;;;;;9.23;100.00;97502.41;5052568;28;19939;-73
2023/01/09 11:15:59;;;;;;;;;;;;;;;9.59;100.00;97521.09;5072597;28;21170;-73
2023/01/09 11:18:25;;;;;;;;;;;;;;;9.80;100.00;97523.44;5069295;28;19997;-72
2023/01/09 11:20:50;;;;;;;;;;;;;;;9.70;100.00;97538.53;5051701;28;19962;-72
2023/01/09 11:23:28;;;;;;;;;;;;;;;9.84;100.00;97541.22;5047813;28;19920;-73
2023/01/09 11:25:54;;;;;;;;;;;;;;;10.17;100.00;97554.94;5049797;28;19916;-73
2023/01/09 11:28:19;;;;;;;;;;;;;;;10.05;100.00;97562.38;5067146;28;19923;-72
2023/01/09 11:30:55;;;;;;;;;;;;;;;9.91;100.00;97567.44;5051785;28;19924;-72
2023/01/09 11:33:23;;;;;;;;;;;;;;;10.19;100.00;97571.13;5049362;28;19916;-73
2023/01/09 11:36:09;;;;;;;;;;;;;;;9.98;100.00;97568.78;5051416;28;19917;-73
2023/01/09 11:38:48;;;;;;;;;;;;;;;9.98;100.00;97584.19;5052315;28;20381;-73
2023/01/09 11:41:18;;;;;;;;;;;;;;;9.75;100.00;97576.84;5051901;28;20378;-73
2023/01/09 11:43:43;;;;;;;;;;;;;;;9.82;100.00;97589.31;5054245;28;20378;-73
2023/01/09 11:46:10;;;;;;;;;;;;;;;10.09;100.00;97595.69;5069271;28;19922;-73
2023/01/09 11:48:55;;;;;;;;;;;;;;;10.38;100.00;97617.34;5050599;28;19916;-73
2023/01/09 11:51:25;;;;;;;;;;;;;;;10.03;100.00;97589.97;5052498;28;19931;-72
2023/01/09 11:54:01;;;;;;;;;;;;;;;9.74;100.00;97586.31;5050439;28;19916;-73
2023/01/09 11:56:26;;;;;;;;;;;;;;;10.09;100.00;97618.84;5051717;28;19913;-73
2023/01/09 11:58:51;;;;;;;;;;;;;;;10.37;100.00;97607.94;5067509;28;19924;-72
2023/01/09 12:01:23;;;;;;;;;;;;;;;10.15;100.00;97610.78;5068678;28;20445;-73
2023/01/09 12:04:06;;;;;;;;;;;;;;;9.64;100.00;97592.81;5070165;28;19923;-73
2023/01/09 12:06:37;;;;;;;;;;;;;;;10.31;100.00;97601.38;5069021;28;19957;-73
2023/01/09 12:09:03;;;;;;;;;;;;;;;10.47;100.00;97596.25;5050272;28;20031;-73
2023/01/09 12:11:30;;;;;;;;;;;;;;;9.98;100.00;97579.06;5051076;28;19990;-73
2023/01/09 12:14:00;;;;;;;;;;;;;;;10.27;100.00;97594.72;5051383;28;19955;-73
2023/01/09 12:16:31;;;;;;;;;;;;;;;9.92;100.00;97583.69;5051440;28;20545;-73
2023/01/09 12:19:00;;;;;;;;;;;;;;;10.16;100.00;97591.88;5050218;28;19927;-73
2023/01/09 12:21:25;;;;;;;;;;;;;;;9.91;100.00;97588.00;5049853;28;19916;-73
2023/01/09 12:24:09;;;;;;;;;;;;;;;10.26;100.00;97593.03;5069033;28;19920;-72
2023/01/09 12:26:53;;;;;;;;;;;;;;;9.64;100.00;97588.50;5069432;28;19913;-73
2023/01/09 12:29:30;;;;;;;;;;;;;;;9.43;100.00;97592.16;5070651;28;19943;-72
2023/01/09 12:32:01;;;;;;;;;;;;;;;9.94;100.00;97607.59;5072944;28;19916;-73
2023/01/09 12:34:36;;;;;;;;;;;;;;;9.67;100.00;97607.25;5072917;28;19969;-73
2023/01/09 12:37:21;;;;;;;;;;;;;;;10.41;100.00;97630.03;5072431;28;20046;-73
2023/01/09 12:39:54;;;;;;;;;;;;;;;9.51;100.00;97614.91;5071589;28;19917;-73
2023/01/09 12:42:28;;;;;;;;;;;;;;;10.23;100.00;97619.75;5053926;28;19955;-72
2023/01/09 12:45:12;;;;;;;;;;;;;;;10.38;100.00;97613.00;5073250;28;19916;-72
2023/01/09 12:47:40;;;;;;;;;;;;;;;10.20;100.00;97604.50;5071778;28;19951;-73
2023/01/09 12:50:31;;;;;;;;;;;;;;;10.10;100.00;97605.88;5072071;28;20054;-73
2023/01/09 12:53:09;;;;;;;;;;;;;;;11.13;100.00;97615.78;5052595;28;19917;-72
2023/01/09 12:55:39;;;;;;;;;;;;;;;9.87;100.00;97570.25;5070850;28;19929;-73
2023/01/09 12:58:11;;;;;;;;;;;;;;;10.45;100.00;97573.16;5054853;28;19932;-72
2023/01/09 13:00:37;;;;;;;;;;;;;;;10.96;100.00;97574.69;5052570;28;20310;-73
2023/01/09 13:03:14;;;;;;;;;;;;;;;10.30;100.00;97561.13;5054987;28;19920;-73